Time;durP1;ratioP1;P1;durP2;ratioP2;P2;SDS_P1;SDS_P2;PMS_P1;PMS_P2;Temp;Humidity;BMP_temperature;BMP_pressure;BME280_temperature;BME280_humidity;BME280_pressure;Samples;Min_cycle;Max_cycle;Signal;HPM_P1;HPM_P2
2020/12/17 00:01:59;;;;;;;12.25;5.65;;;19.90;52.50;;;;;;5062012;28;20044;-65
2020/12/17 00:04:25;;;;;;;8.88;5.90;;;19.90;52.50;;;;;;5040900;28;20083;-65
2020/12/17 00:06:51;;;;;;;8.88;4.80;;;19.90;52.40;;;;;;5061621;28;20029;-66
2020/12/17 00:09:16;;;;;;;10.30;6.07;;;19.90;52.40;;;;;;5061112;28;20040;-66
2020/12/17 00:11:42;;;;;;;7.35;4.85;;;19.90;52.50;;;;;;5059977;28;20020;-65
2020/12/17 00:14:08;;;;;;;9.52;5.38;;;19.90;52.40;;;;;;5050655;28;20028;-64
2020/12/17 00:16:33;;;;;;;10.85;4.63;;;19.90;52.40;;;;;;5058463;28;20376;-65
2020/12/17 00:18:59;;;;;;;7.35;5.10;;;19.90;52.40;;;;;;5060554;28;20112;-62
2020/12/17 00:21:24;;;;;;;8.25;4.90;;;19.80;52.40;;;;;;5055280;28;20120;-65
2020/12/17 00:23:50;;;;;;;10.75;4.57;;;19.80;52.40;;;;;;5047502;28;20017;-65
2020/12/17 00:26:15;;;;;;;6.63;4.65;;;19.80;52.40;;;;;;5063120;28;20028;-67
2020/12/17 00:28:41;;;;;;;10.35;5.60;;;19.80;52.40;;;;;;5056987;28;20079;-66
2020/12/17 00:31:06;;;;;;;8.82;5.00;;;19.80;52.40;;;;;;5059948;28;20032;-65
2020/12/17 00:33:32;;;;;;;10.90;5.10;;;19.80;52.40;;;;;;5048354;28;20495;-62
2020/12/17 00:35:57;;;;;;;7.65;4.38;;;19.80;52.40;;;;;;5066523;28;20090;-65
2020/12/17 00:38:22;;;;;;;8.43;4.88;;;19.80;52.30;;;;;;5035694;28;20033;-66
2020/12/17 00:40:48;;;;;;;8.32;4.93;;;19.80;52.30;;;;;;5053283;28;20525;-66
2020/12/17 00:43:13;;;;;;;7.18;4.85;;;19.70;52.30;;;;;;5056316;28;20036;-65
2020/12/17 00:45:39;;;;;;;9.15;4.32;;;19.80;52.30;;;;;;5047101;28;20025;-65
2020/12/17 00:48:04;;;;;;;10.18;4.45;;;19.80;53.00;;;;;;5043915;28;20394;-66
2020/12/17 00:50:30;;;;;;;7.93;4.03;;;19.80;52.30;;;;;;5057412;28;20039;-65
2020/12/17 00:52:55;;;;;;;7.53;4.95;;;19.70;52.20;;;;;;5057943;28;20033;-66
2020/12/17 00:55:21;;;;;;;8.13;4.10;;;19.70;52.20;;;;;;5064264;28;20399;-66
2020/12/17 00:57:47;;;;;;;6.60;4.15;;;19.70;52.20;;;;;;5051375;28;20040;-65
2020/12/17 01:00:12;;;;;;;6.43;3.55;;;19.80;52.30;;;;;;5038885;28;20025;-66
2020/12/17 01:02:38;;;;;;;8.02;4.35;;;19.70;52.20;;;;;;5055174;28;20029;-66
2020/12/17 01:05:04;;;;;;;7.18;3.70;;;19.70;52.20;;;;;;5052188;28;20079;-66
2020/12/17 01:07:30;;;;;;;7.30;3.95;;;19.70;52.20;;;;;;5064080;28;20043;-66
2020/12/17 01:09:55;;;;;;;6.13;4.00;;;19.70;52.20;;;;;;5055540;28;20025;-66
2020/12/17 01:12:21;;;;;;;7.47;4.40;;;19.70;52.20;;;;;;5046177;28;20025;-66
2020/12/17 01:14:46;;;;;;;6.32;4.00;;;19.70;52.20;;;;;;5065540;28;20081;-65
2020/12/17 01:17:12;;;;;;;6.20;3.70;;;19.70;52.20;;;;;;5054508;28;20033;-66
2020/12/17 01:19:37;;;;;;;5.15;3.78;;;19.70;52.20;;;;;;5036818;28;20029;-66
2020/12/17 01:22:03;;;;;;;6.07;3.78;;;19.70;52.10;;;;;;5045742;28;20037;-66
2020/12/17 01:24:28;;;;;;;4.55;3.60;;;19.70;52.20;;;;;;5064704;28;20402;-66
2020/12/17 01:26:57;;;;;;;4.90;3.25;;;19.70;52.10;;;;;;5051512;28;20029;-66
2020/12/17 01:29:23;;;;;;;5.72;3.63;;;19.70;52.10;;;;;;5036648;28;20025;-65
2020/12/17 01:31:48;;;;;;;6.45;3.92;;;19.70;52.10;;;;;;5047012;28;20403;-66
2020/12/17 01:34:14;;;;;;;5.03;3.72;;;19.70;52.10;;;;;;5041509;28;20551;-66
2020/12/17 01:36:39;;;;;;;5.53;4.13;;;19.70;52.10;;;;;;5058361;28;20658;-67
2020/12/17 01:39:05;;;;;;;4.80;3.03;;;19.70;52.10;;;;;;5054266;28;20036;-67
2020/12/17 01:41:30;;;;;;;6.50;3.65;;;19.70;52.10;;;;;;5058372;28;20060;-66
2020/12/17 01:44:02;;;;;;;6.60;3.75;;;19.70;52.00;;;;;;5043119;28;20029;-66
2020/12/17 01:46:27;;;;;;;6.38;3.92;;;19.60;52.10;;;;;;5056464;28;20288;-64
2020/12/17 01:48:53;;;;;;;6.30;3.42;;;19.60;52.10;;;;;;5049849;28;20507;-66
2020/12/17 01:51:18;;;;;;;5.05;3.13;;;19.60;52.00;;;;;;5035092;28;20063;-66
2020/12/17 01:53:44;;;;;;;4.43;3.22;;;19.60;52.00;;;;;;5058615;28;20450;-66
2020/12/17 01:56:13;;;;;;;5.30;3.22;;;19.60;52.00;;;;;;5026904;28;20029;-66
2020/12/17 01:58:40;;;;;;;6.68;3.17;;;19.60;52.00;;;;;;5055557;28;20028;-65
2020/12/17 02:01:06;;;;;;;4.93;2.85;;;19.60;51.90;;;;;;5026823;28;20056;-66
2020/12/17 02:03:31;;;;;;;4.28;3.22;;;19.60;51.90;;;;;;5010893;28;20511;-66
2020/12/17 02:05:57;;;;;;;5.25;3.22;;;19.60;52.00;;;;;;5049563;28;20036;-66
2020/12/17 02:08:23;;;;;;;3.97;2.85;;;19.60;51.90;;;;;;5037499;28;20036;-66
2020/12/17 02:10:48;;;;;;;5.90;3.63;;;19.60;51.90;;;;;;5029088;28;20039;-66
2020/12/17 02:13:14;;;;;;;6.18;3.50;;;19.60;51.90;;;;;;5044420;28;20153;-66
2020/12/17 02:15:39;;;;;;;5.03;3.30;;;19.60;51.90;;;;;;5056687;28;20024;-64
2020/12/17 02:18:06;;;;;;;5.15;3.28;;;19.60;51.90;;;;;;5043105;28;20025;-60
2020/12/17 02:20:31;;;;;;;6.97;3.33;;;19.50;51.80;;;;;;5061129;28;20380;-66
2020/12/17 02:22:57;;;;;;;3.42;2.75;;;19.60;51.80;;;;;;5025874;28;20052;-66
2020/12/17 02:25:22;;;;;;;2.90;2.60;;;19.50;51.80;;;;;;5042766;28;20039;-66
2020/12/17 02:27:48;;;;;;;3.65;2.50;;;19.50;51.80;;;;;;5055124;28;20119;-66
2020/12/17 02:30:14;;;;;;;5.03;3.13;;;19.50;51.80;;;;;;5054486;28;20025;-65
2020/12/17 02:32:39;;;;;;;4.85;3.03;;;19.50;51.80;;;;;;5033306;28;20040;-66
2020/12/17 02:35:05;;;;;;;4.18;3.30;;;19.60;51.80;;;;;;5044516;28;20486;-65
2020/12/17 02:37:31;;;;;;;4.25;3.08;;;19.50;51.70;;;;;;5051724;28;20029;-65
2020/12/17 02:39:56;;;;;;;4.18;2.75;;;19.50;51.70;;;;;;5058385;28;20097;-65
2020/12/17 02:42:22;;;;;;;4.90;2.45;;;19.50;51.80;;;;;;5053685;28;20041;-65
2020/12/17 02:44:47;;;;;;;3.05;2.75;;;19.50;51.70;;;;;;5044957;28;20029;-65
2020/12/17 02:47:13;;;;;;;4.00;3.17;;;19.50;51.70;;;;;;5055157;28;20032;-65
2020/12/17 02:49:38;;;;;;;4.47;3.00;;;19.50;51.70;;;;;;5047649;28;20056;-65
2020/12/17 02:52:04;;;;;;;3.42;2.83;;;19.50;51.70;;;;;;5063570;28;20454;-66
2020/12/17 02:54:30;;;;;;;5.13;2.65;;;19.50;51.70;;;;;;5056340;28;20040;-64
2020/12/17 02:56:55;;;;;;;3.60;2.45;;;19.50;51.70;;;;;;5055079;28;20086;-66
2020/12/17 02:59:21;;;;;;;4.40;3.22;;;19.50;51.70;;;;;;5063219;28;20041;-66
2020/12/17 03:01:46;;;;;;;4.82;2.42;;;19.40;51.60;;;;;;5066645;28;20083;-65
2020/12/17 03:04:12;;;;;;;5.00;2.72;;;19.50;51.60;;;;;;5051321;28;20033;-64
2020/12/17 03:06:37;;;;;;;2.90;2.60;;;19.50;51.60;;;;;;5047678;28;20586;-65
2020/12/17 03:09:04;;;;;;;3.85;2.60;;;19.40;51.60;;;;;;5052376;28;20032;-66
2020/12/17 03:11:30;;;;;;;3.65;2.67;;;19.40;51.60;;;;;;5066012;28;20051;-66
2020/12/17 03:13:55;;;;;;;4.22;3.00;;;19.40;51.50;;;;;;5032611;28;20029;-65
2020/12/17 03:16:21;;;;;;;3.08;2.50;;;19.40;51.50;;;;;;5055966;28;20173;-65
2020/12/17 03:18:47;;;;;;;4.72;2.63;;;19.40;51.50;;;;;;5057720;28;20597;-65
2020/12/17 03:21:12;;;;;;;3.03;2.35;;;19.40;51.50;;;;;;5057608;28;20111;-65
2020/12/17 03:23:38;;;;;;;3.33;2.60;;;19.40;51.50;;;;;;5051307;28;20115;-65
2020/12/17 03:26:03;;;;;;;2.67;2.33;;;19.40;51.50;;;;;;5060155;28;20438;-66
2020/12/17 03:28:29;;;;;;;3.67;2.67;;;19.40;51.50;;;;;;5038551;28;20433;-65
2020/12/17 03:30:54;;;;;;;2.35;2.10;;;19.40;51.50;;;;;;5051499;28;20036;-66
2020/12/17 03:33:20;;;;;;;3.85;2.60;;;19.50;51.60;;;;;;5053992;28;20036;-66
2020/12/17 03:35:45;;;;;;;2.35;1.98;;;19.50;51.50;;;;;;5062297;28;20116;-65
2020/12/17 03:38:11;;;;;;;3.00;2.05;;;19.50;51.50;;;;;;5047653;28;20394;-66
2020/12/17 03:40:36;;;;;;;2.30;1.92;;;19.50;51.60;;;;;;5067166;28;20036;-66
2020/12/17 03:43:02;;;;;;;3.78;2.25;;;19.50;51.50;;;;;;5050586;28;20036;-65
2020/12/17 03:45:27;;;;;;;2.95;2.30;;;19.50;51.50;;;;;;5054454;28;20063;-64
2020/12/17 03:47:53;;;;;;;3.63;2.10;;;19.50;51.50;;;;;;5047869;28;20040;-65
2020/12/17 03:50:18;;;;;;;3.78;2.00;;;19.60;51.60;;;;;;5047933;28;20094;-65
2020/12/17 03:52:44;;;;;;;2.30;1.95;;;19.60;51.60;;;;;;5066193;28;20037;-66
2020/12/17 03:55:09;;;;;;;2.65;2.30;;;19.60;51.50;;;;;;5050722;28;20032;-64
2020/12/17 03:57:35;;;;;;;3.78;2.22;;;19.60;51.50;;;;;;5057563;28;20768;-65
2020/12/17 04:00:00;;;;;;;2.97;2.28;;;19.60;51.50;;;;;;5056713;28;20086;-65
2020/12/17 04:02:26;;;;;;;4.07;2.67;;;19.70;51.50;;;;;;5047015;28;20036;-66
2020/12/17 04:04:51;;;;;;;1.83;1.63;;;19.60;51.40;;;;;;5065895;28;20029;-66
2020/12/17 04:07:17;;;;;;;2.97;2.28;;;19.70;51.50;;;;;;5048714;28;20086;-65
2020/12/17 04:09:42;;;;;;;3.03;1.92;;;19.70;51.40;;;;;;5054608;28;20037;-65
2020/12/17 04:12:08;;;;;;;3.42;2.22;;;19.70;51.40;;;;;;5052880;28;20097;-66
2020/12/17 04:14:33;;;;;;;2.08;1.88;;;19.70;51.40;;;;;;5062011;28;20094;-66
2020/12/17 04:16:59;;;;;;;3.53;2.03;;;19.70;51.30;;;;;;5061253;28;20064;-63
2020/12/17 04:19:25;;;;;;;4.35;2.42;;;19.70;51.30;;;;;;5047460;28;20056;-66
2020/12/17 04:21:50;;;;;;;2.60;2.15;;;19.70;51.30;;;;;;5057963;28;20695;-64
2020/12/17 04:24:16;;;;;;;2.38;1.80;;;19.70;51.20;;;;;;5056994;28;20044;-64
2020/12/17 04:26:41;;;;;;;2.47;1.95;;;19.70;51.20;;;;;;5051971;28;20032;-65
2020/12/17 04:29:07;;;;;;;3.28;2.25;;;19.70;51.10;;;;;;5056613;28;20518;-65
2020/12/17 04:31:32;;;;;;;2.53;2.10;;;19.70;51.10;;;;;;5045716;28;20124;-64
2020/12/17 04:33:58;;;;;;;3.30;2.22;;;19.70;51.00;;;;;;5058252;28;20040;-66
2020/12/17 04:36:24;;;;;;;2.92;1.98;;;19.70;51.00;;;;;;5055923;28;20273;-65
2020/12/17 04:38:49;;;;;;;2.17;1.98;;;19.70;51.00;;;;;;5058116;28;20203;-66
2020/12/17 04:41:19;;;;;;;3.05;1.98;;;19.70;51.00;;;;;;5061586;28;20510;-65
2020/12/17 04:43:45;;;;;;;4.38;2.15;;;19.70;50.90;;;;;;5045001;28;20116;-66
2020/12/17 04:46:10;;;;;;;2.88;2.42;;;19.70;50.90;;;;;;5043409;28;20036;-65
2020/12/17 04:48:36;;;;;;;2.15;1.95;;;19.70;50.90;;;;;;5053688;28;20037;-64
2020/12/17 04:51:01;;;;;;;2.30;1.65;;;19.70;50.80;;;;;;5033427;28;20032;-64
2020/12/17 04:53:27;;;;;;;2.97;2.08;;;19.70;50.80;;;;;;5029084;28;20033;-65
2020/12/17 04:55:52;;;;;;;3.05;2.17;;;19.70;50.80;;;;;;5017054;28;20112;-65
2020/12/17 04:58:19;;;;;;;2.42;1.98;;;19.70;50.80;;;;;;5042559;28;20032;-64
2020/12/17 05:00:45;;;;;;;4.50;2.30;;;19.60;50.70;;;;;;5054468;28;20460;-65
2020/12/17 05:03:12;;;;;;;2.17;1.80;;;19.60;50.70;;;;;;5035194;28;20111;-65
2020/12/17 05:05:38;;;;;;;2.75;2.08;;;19.60;50.70;;;;;;5056041;28;20075;-62
2020/12/17 05:08:04;;;;;;;3.08;2.28;;;19.60;50.60;;;;;;5055510;28;20083;-66
2020/12/17 05:10:29;;;;;;;2.10;1.80;;;19.70;50.70;;;;;;5047095;28;20045;-66
2020/12/17 05:12:55;;;;;;;2.60;2.05;;;19.60;50.60;;;;;;5050807;28;20048;-65
2020/12/17 05:15:26;;;;;;;3.05;2.13;;;19.60;50.60;;;;;;5053659;28;20036;-65
2020/12/17 05:17:52;;;;;;;2.28;1.85;;;19.60;50.60;;;;;;5058157;28;20384;-64
2020/12/17 05:20:18;;;;;;;5.03;2.05;;;19.60;51.30;;;;;;5061631;28;20036;-65
2020/12/17 05:22:44;;;;;;;4.10;1.95;;;19.60;50.60;;;;;;5041914;28;20414;-66
2020/12/17 05:25:10;;;;;;;2.85;2.38;;;19.60;50.60;;;;;;5027943;28;20057;-62
2020/12/17 05:27:35;;;;;;;3.22;2.22;;;19.60;50.60;;;;;;5035134;28;20060;-62
2020/12/17 05:30:01;;;;;;;2.63;2.15;;;19.60;50.60;;;;;;5022788;28;20055;-65
2020/12/17 05:32:27;;;;;;;4.32;2.13;;;19.60;50.60;;;;;;5047033;28;20056;-66
2020/12/17 05:34:53;;;;;;;4.18;2.58;;;19.50;50.60;;;;;;5065491;28;20029;-65
2020/12/17 05:37:21;;;;;;;5.13;2.28;;;19.50;50.60;;;;;;5031710;28;20048;-62
2020/12/17 05:39:46;;;;;;;7.15;2.72;;;19.50;50.80;;;;;;5055631;28;20039;-61
2020/12/17 05:42:13;;;;;;;7.10;1.85;;;19.60;50.80;;;;;;5008115;28;20040;-62
2020/12/17 05:44:38;;;;;;;3.13;2.15;;;19.50;50.80;;;;;;5059103;28;20073;-62
2020/12/17 05:47:04;;;;;;;4.35;2.22;;;19.50;50.80;;;;;;5048726;28;20248;-60
2020/12/17 05:49:30;;;;;;;5.88;2.22;;;19.50;50.80;;;;;;5036396;28;20039;-62
2020/12/17 05:52:14;;;;;;;9.05;2.42;;;19.50;50.70;;;;;;5043991;28;20036;-62
2020/12/17 05:54:54;;;;;;;4.78;1.90;;;19.50;50.70;;;;;;5041108;28;20044;-56
2020/12/17 05:57:21;;;;;;;4.57;2.33;;;19.40;50.70;;;;;;5045343;28;20053;-63
2020/12/17 06:00:01;;;;;;;6.95;2.60;;;19.40;50.60;;;;;;5063314;28;20651;-61
2020/12/17 06:02:26;;;;;;;4.25;2.53;;;19.40;50.70;;;;;;5053536;28;20060;-61
2020/12/17 06:05:08;;;;;;;5.70;2.67;;;19.40;50.60;;;;;;5052077;28;20033;-61
2020/12/17 06:07:40;;;;;;;4.22;2.50;;;19.40;50.60;;;;;;5044850;28;20033;-62
2020/12/17 06:10:06;;;;;;;6.93;2.60;;;19.40;50.50;;;;;;5034565;28;20028;-60
2020/12/17 06:12:35;;;;;;;4.30;3.05;;;19.40;51.10;;;;;;5051539;28;20191;-62
2020/12/17 06:15:03;;;;;;;3.67;2.97;;;19.40;50.60;;;;;;5026265;28;20040;-61
2020/12/17 06:17:36;;;;;;;8.30;3.03;;;19.40;50.60;;;;;;5042010;28;20032;-61
2020/12/17 06:20:01;;;;;;;7.45;3.17;;;19.40;50.70;;;;;;5042282;28;20036;-61
2020/12/17 06:22:27;;;;;;;62.78;29.67;;;19.40;50.60;;;;;;5049635;28;20534;-60
2020/12/17 06:24:52;;;;;;;103.55;50.33;;;19.40;51.00;;;;;;5047470;28;20040;-62
2020/12/17 06:27:18;;;;;;;110.93;52.50;;;19.40;51.20;;;;;;5029715;28;20029;-61
2020/12/17 06:29:48;;;;;;;96.93;49.50;;;19.40;51.20;;;;;;5012399;28;20598;-61
2020/12/17 06:32:16;;;;;;;104.35;48.67;;;19.40;51.20;;;;;;5047341;28;20045;-61
2020/12/17 06:34:41;;;;;;;97.15;45.42;;;19.40;51.20;;;;;;5047337;28;20028;-61
2020/12/17 06:37:07;;;;;;;96.57;47.92;;;19.40;51.10;;;;;;5013567;28;20415;-61
2020/12/17 06:39:32;;;;;;;83.85;42.45;;;19.40;51.00;;;;;;5013869;28;20044;-61
2020/12/17 06:41:58;;;;;;;86.03;41.88;;;19.30;50.90;;;;;;5012916;28;20124;-61
2020/12/17 06:44:30;;;;;;;86.30;42.22;;;19.40;50.90;;;;;;5046314;28;20036;-66
2020/12/17 06:47:03;;;;;;;95.15;44.97;;;19.40;50.80;;;;;;5047586;28;20402;-66
2020/12/17 06:49:30;;;;;;;88.30;43.70;;;19.40;51.40;;;;;;5047224;28;20095;-66
2020/12/17 06:52:09;;;;;;;88.68;43.97;;;19.40;51.50;;;;;;5047377;28;20029;-67
2020/12/17 06:54:39;;;;;;;74.90;38.08;;;19.40;51.50;;;;;;5047511;28;20047;-66
2020/12/17 06:57:17;;;;;;;78.88;38.58;;;19.40;51.40;;;;;;5047199;28;20033;-66
2020/12/17 06:59:44;;;;;;;74.28;39.63;;;19.40;51.40;;;;;;5047207;28;20099;-66
2020/12/17 07:02:10;;;;;;;73.63;35.58;;;19.40;51.40;;;;;;5046632;28;20104;-66
2020/12/17 07:04:42;;;;;;;75.20;34.85;;;19.40;51.40;;;;;;5045754;28;20033;-65
2020/12/17 07:07:23;;;;;;;68.80;33.65;;;19.40;51.30;;;;;;5047253;28;20074;-66
2020/12/17 07:09:55;;;;;;;56.22;28.70;;;19.40;51.20;;;;;;5047167;28;20036;-65
2020/12/17 07:12:36;;;;;;;53.72;26.55;;;19.40;51.20;;;;;;5046253;28;21891;-65
2020/12/17 07:15:02;;;;;;;46.13;25.42;;;19.40;51.20;;;;;;5046362;28;20418;-66
2020/12/17 07:17:28;;;;;;;43.22;22.13;;;19.50;51.30;;;;;;5047259;28;20496;-65
2020/12/17 07:19:54;;;;;;;43.03;21.40;;;19.50;51.30;;;;;;5040369;28;20094;-65
2020/12/17 07:22:19;;;;;;;33.92;17.63;;;19.50;51.20;;;;;;5046361;28;20503;-66
2020/12/17 07:24:49;;;;;;;36.00;18.92;;;19.50;51.20;;;;;;5046666;28;20083;-66
2020/12/17 07:27:31;;;;;;;31.25;15.50;;;19.60;51.20;;;;;;5046940;28;20550;-66
2020/12/17 07:30:00;;;;;;;31.88;16.17;;;19.60;51.30;;;;;;5045951;28;20119;-66
2020/12/17 07:32:35;;;;;;;30.40;15.60;;;19.50;51.00;;;;;;5045379;28;20029;-66
2020/12/17 07:35:15;;;;;;;24.80;14.40;;;19.60;51.10;;;;;;5046429;28;20415;-66
2020/12/17 07:37:56;;;;;;;23.10;12.95;;;19.60;51.00;;;;;;5046801;28;20571;-66
2020/12/17 07:40:34;;;;;;;25.10;13.05;;;19.60;51.00;;;;;;5046432;28;20037;-64
2020/12/17 07:43:13;;;;;;;19.42;12.07;;;19.60;51.00;;;;;;5045657;28;20133;-66
2020/12/17 07:45:39;;;;;;;20.30;10.98;;;19.60;50.90;;;;;;5046061;28;20442;-66
2020/12/17 07:48:34;;;;;;;18.50;10.85;;;19.60;50.80;;;;;;5046244;28;20025;-65
2020/12/17 07:51:20;;;;;;;17.60;9.77;;;19.60;50.80;;;;;;5045709;28;20052;-66
2020/12/17 07:53:50;;;;;;;14.23;8.50;;;19.60;50.70;;;;;;5031745;28;20028;-66
2020/12/17 07:56:15;;;;;;;15.38;8.75;;;19.70;50.80;;;;;;5045885;28;20037;-65
2020/12/17 07:58:41;;;;;;;21.63;8.73;;;19.70;50.70;;;;;;5046189;28;20079;-65
2020/12/17 08:01:07;;;;;;;15.68;6.53;;;19.70;50.50;;;;;;5045576;28;20033;-66
2020/12/17 08:03:42;;;;;;;10.27;6.22;;;19.70;50.30;;;;;;5028806;28;20025;-66
2020/12/17 08:06:11;;;;;;;11.83;5.90;;;19.60;50.20;;;;;;5045325;28;20036;-64
2020/12/17 08:08:37;;;;;;;13.68;6.45;;;19.60;49.90;;;;;;5026341;28;20025;-66
2020/12/17 08:11:06;;;;;;;11.55;6.13;;;19.60;49.70;;;;;;5028242;28;20075;-66
2020/12/17 08:13:31;;;;;;;13.10;6.45;;;19.60;49.70;;;;;;5046099;28;20737;-65
2020/12/17 08:15:58;;;;;;;16.00;6.20;;;19.70;49.60;;;;;;5046104;28;20037;-66
2020/12/17 08:18:43;;;;;;;14.07;6.75;;;19.60;49.60;;;;;;5045523;28;20407;-66
2020/12/17 08:21:10;;;;;;;;;;;19.70;50.20;;;;;;5044544;28;20565;-66
2020/12/17 08:23:40;;;;;;;14.55;6.97;;;19.70;50.40;;;;;;5045804;28;19908;-67
2020/12/17 08:26:06;;;;;;;13.27;5.55;;;19.60;50.30;;;;;;5045116;28;20039;-63
2020/12/17 08:28:39;;;;;;;11.07;6.43;;;19.60;50.40;;;;;;5045707;28;20067;-66
2020/12/17 08:31:17;;;;;;;13.25;5.65;;;19.60;50.40;;;;;;5044770;28;20115;-67
2020/12/17 08:33:50;;;;;;;13.57;5.88;;;19.60;50.30;;;;;;5044928;28;20523;-67
2020/12/17 08:36:19;;;;;;;14.30;5.97;;;19.60;50.90;;;;;;5044869;28;20691;-67
2020/12/17 08:38:56;;;;;;;14.30;6.10;;;19.60;50.20;;;;;;5044892;28;20056;-67
2020/12/17 08:41:24;;;;;;;13.15;5.30;;;19.60;50.20;;;;;;5044417;28;20037;-67
2020/12/17 08:43:50;;;;;;;10.32;5.80;;;19.60;50.20;;;;;;5043982;28;20029;-66
2020/12/17 08:46:16;;;;;;;15.65;6.00;;;19.60;50.20;;;;;;5010874;28;20036;-66
2020/12/17 08:48:43;;;;;;;12.15;5.97;;;19.60;50.10;;;;;;5044936;28;20055;-67
2020/12/17 08:51:12;;;;;;;10.20;4.90;;;19.60;50.20;;;;;;5027420;28;20025;-66
2020/12/17 08:53:40;;;;;;;8.60;4.80;;;19.60;50.20;;;;;;5044911;28;20032;-62
2020/12/17 08:56:10;;;;;;;10.00;5.30;;;19.60;50.20;;;;;;5027464;28;20036;-63
2020/12/17 08:58:43;;;;;;;12.45;5.10;;;19.60;50.20;;;;;;5045047;28;20113;-62
2020/12/17 09:01:29;;;;;;;12.15;5.85;;;19.60;50.40;;;;;;5010707;28;20028;-62
2020/12/17 09:03:55;;;;;;;15.00;6.45;;;19.60;50.50;;;;;;5044276;28;20029;-60
2020/12/17 09:06:28;;;;;;;11.05;5.18;;;19.60;50.60;;;;;;5044535;28;20037;-61
2020/12/17 09:08:54;;;;;;;13.73;5.50;;;19.60;50.70;;;;;;5044352;28;20025;-62
2020/12/17 09:11:29;;;;;;;9.10;5.18;;;19.60;50.70;;;;;;5044824;28;20033;-56
2020/12/17 09:14:01;;;;;;;10.70;5.10;;;19.60;50.70;;;;;;5026659;28;20056;-60
2020/12/17 09:16:28;;;;;;;11.73;5.05;;;19.60;50.70;;;;;;5043952;28;20044;-61
2020/12/17 09:18:54;;;;;;;8.88;4.93;;;19.50;50.70;;;;;;5045254;28;20542;-62
2020/12/17 09:21:20;;;;;;;9.07;5.07;;;19.60;50.80;;;;;;5044043;28;20029;-62
2020/12/17 09:23:56;;;;;;;10.23;4.65;;;19.50;50.70;;;;;;5044030;28;20024;-62
2020/12/17 09:26:21;;;;;;;10.20;4.75;;;19.50;50.80;;;;;;5026096;28;20021;-63
2020/12/17 09:28:51;;;;;;;9.70;4.97;;;19.50;50.80;;;;;;5044267;28;20028;-63
2020/12/17 09:31:24;;;;;;;9.05;4.25;;;19.50;50.80;;;;;;5026240;28;20050;-62
2020/12/17 09:33:50;;;;;;;10.85;5.22;;;19.50;50.80;;;;;;5043777;28;20036;-62
2020/12/17 09:36:16;;;;;;;6.53;4.50;;;19.50;50.80;;;;;;5044021;28;20024;-62
2020/12/17 09:38:42;;;;;;;6.55;4.45;;;19.50;50.80;;;;;;5035281;28;20116;-61
2020/12/17 09:41:07;;;;;;;7.45;3.83;;;19.50;50.90;;;;;;5044906;28;20108;-62
2020/12/17 09:43:33;;;;;;;7.95;4.30;;;19.50;50.90;;;;;;5026055;28;20036;-62
2020/12/17 09:45:58;;;;;;;9.88;5.05;;;19.50;50.90;;;;;;5044194;28;20033;-62
2020/12/17 09:48:24;;;;;;;6.40;3.95;;;19.50;50.90;;;;;;5044008;28;20113;-62
2020/12/17 09:50:56;;;;;;;8.02;4.63;;;19.50;50.90;;;;;;5043713;28;20025;-60
2020/12/17 09:53:22;;;;;;;9.13;4.22;;;19.50;50.90;;;;;;5042708;28;20592;-61
2020/12/17 09:55:48;;;;;;;8.90;4.30;;;19.50;50.90;;;;;;5044207;28;20025;-61
2020/12/17 09:58:14;;;;;;;5.80;3.42;;;19.40;50.90;;;;;;5042503;28;20090;-63
2020/12/17 10:00:39;;;;;;;5.50;4.05;;;19.40;50.90;;;;;;5044700;28;20403;-62
2020/12/17 10:03:05;;;;;;;5.50;3.75;;;19.50;50.90;;;;;;5043019;28;20452;-63
2020/12/17 10:05:30;;;;;;;5.97;3.72;;;19.40;50.90;;;;;;5043978;28;20094;-61
2020/12/17 10:07:56;;;;;;;7.15;3.75;;;19.50;50.90;;;;;;5043065;28;20577;-59
2020/12/17 10:10:21;;;;;;;5.32;3.72;;;19.50;50.90;;;;;;5043936;28;20033;-62
2020/12/17 10:12:48;;;;;;;5.47;3.50;;;19.50;50.90;;;;;;5043303;28;20555;-61
2020/12/17 10:15:13;;;;;;;5.47;3.40;;;19.50;50.90;;;;;;5042292;28;20500;-61
2020/12/17 10:17:39;;;;;;;5.88;3.53;;;19.50;50.90;;;;;;5044283;28;20036;-61
2020/12/17 10:20:05;;;;;;;5.90;3.38;;;19.50;51.00;;;;;;5044194;28;20025;-62
2020/12/17 10:22:31;;;;;;;6.15;3.63;;;19.50;50.90;;;;;;5042083;28;20041;-62
2020/12/17 10:24:56;;;;;;;4.35;3.42;;;19.50;50.90;;;;;;5043815;28;20482;-63
2020/12/17 10:27:22;;;;;;;5.43;3.25;;;19.50;50.90;;;;;;5025385;28;20033;-62
2020/12/17 10:29:47;;;;;;;3.95;3.15;;;19.50;50.80;;;;;;5041939;28;20025;-61
2020/12/17 10:32:14;;;;;;;4.18;2.97;;;19.50;50.80;;;;;;5044052;28;20519;-61
2020/12/17 10:34:40;;;;;;;5.53;3.40;;;19.50;50.80;;;;;;5043256;28;20037;-62
2020/12/17 10:37:06;;;;;;;6.55;3.03;;;19.50;50.80;;;;;;5043996;28;20036;-61
2020/12/17 10:39:32;;;;;;;5.13;3.45;;;19.50;50.80;;;;;;5043706;28;20380;-62
2020/12/17 10:42:00;;;;;;;5.60;3.83;;;19.50;50.80;;;;;;5043096;28;20040;-62
2020/12/17 10:44:25;;;;;;;4.85;3.63;;;19.50;50.80;;;;;;5046913;28;20461;-61
2020/12/17 10:46:51;;;;;;;5.65;3.17;;;19.40;50.80;;;;;;5045943;28;20132;-62
2020/12/17 10:49:16;;;;;;;5.93;3.13;;;19.40;50.70;;;;;;5044365;28;20079;-62
2020/12/17 10:51:42;;;;;;;5.25;3.60;;;19.40;50.80;;;;;;5043734;28;20132;-59
2020/12/17 10:54:08;;;;;;;4.38;3.10;;;19.50;50.80;;;;;;5043482;28;20057;-62
2020/12/17 10:56:33;;;;;;;4.95;2.95;;;19.40;50.80;;;;;;5043365;28;20517;-58
2020/12/17 10:58:59;;;;;;;4.72;3.65;;;19.50;50.90;;;;;;5044117;28;20032;-61
2020/12/17 11:01:24;;;;;;;3.53;3.15;;;19.50;50.80;;;;;;5041635;28;20033;-61
2020/12/17 11:03:52;;;;;;;5.40;3.28;;;19.40;50.80;;;;;;5043223;28;20090;-62
2020/12/17 11:06:18;;;;;;;4.10;3.30;;;19.50;50.80;;;;;;5043588;28;20190;-62
2020/12/17 11:08:44;;;;;;;3.70;3.28;;;19.40;50.80;;;;;;5047357;28;20082;-59
2020/12/17 11:11:10;;;;;;;5.50;3.40;;;19.50;50.80;;;;;;5028784;28;20021;-63
2020/12/17 11:13:35;;;;;;;6.07;3.45;;;19.40;50.70;;;;;;5045875;28;20047;-61
2020/12/17 11:16:00;;;;;;;4.03;3.00;;;19.50;50.80;;;;;;5046465;28;20021;-62
2020/12/17 11:18:26;;;;;;;5.38;3.58;;;19.50;50.80;;;;;;5045437;28;20032;-62
2020/12/17 11:20:51;;;;;;;4.15;3.30;;;19.50;50.80;;;;;;5047174;28;20029;-60
2020/12/17 11:23:17;;;;;;;3.92;3.35;;;19.50;50.80;;;;;;5046277;28;20032;-63
2020/12/17 11:25:43;;;;;;;6.78;3.50;;;19.50;50.80;;;;;;5047037;28;20064;-62
2020/12/17 11:28:08;;;;;;;5.05;3.60;;;19.50;50.80;;;;;;5045470;28;20025;-62
2020/12/17 11:30:35;;;;;;;4.82;3.13;;;19.50;50.80;;;;;;5045287;28;20029;-62
2020/12/17 11:33:01;;;;;;;4.60;2.60;;;19.50;50.80;;;;;;5045153;28;20663;-62
2020/12/17 11:35:26;;;;;;;3.58;2.85;;;19.50;50.80;;;;;;5046914;28;20037;-62
2020/12/17 11:37:52;;;;;;;3.35;2.75;;;19.50;50.70;;;;;;5045949;28;20507;-61
2020/12/17 11:40:21;;;;;;;3.80;3.28;;;19.60;50.80;;;;;;5046484;28;20033;-62
2020/12/17 11:42:46;;;;;;;3.85;3.00;;;19.60;50.80;;;;;;5045647;28;20130;-63
2020/12/17 11:45:12;;;;;;;3.28;2.95;;;19.60;50.80;;;;;;5046285;28;20029;-62
2020/12/17 11:47:38;;;;;;;3.83;2.90;;;19.60;50.80;;;;;;5046668;28;21872;-62
2020/12/17 11:50:05;;;;;;;3.92;3.10;;;19.60;50.70;;;;;;5046266;28;20747;-62
2020/12/17 11:52:31;;;;;;;3.80;3.00;;;19.70;50.80;;;;;;5044349;28;20036;-63
2020/12/17 11:54:56;;;;;;;4.70;3.17;;;19.70;50.70;;;;;;5046077;28;20025;-63
2020/12/17 11:57:22;;;;;;;3.67;3.00;;;19.70;50.70;;;;;;5046265;28;20087;-63
2020/12/17 11:59:47;;;;;;;4.15;3.10;;;19.70;50.70;;;;;;5047165;28;20621;-63
2020/12/17 12:02:13;;;;;;;3.67;3.00;;;19.70;50.60;;;;;;5045634;28;20029;-63
2020/12/17 12:04:38;;;;;;;4.85;3.38;;;19.80;50.70;;;;;;5044275;28;20029;-63
2020/12/17 12:07:04;;;;;;;3.70;2.88;;;19.80;50.60;;;;;;5046046;28;20462;-63
2020/12/17 12:09:29;;;;;;;3.70;3.00;;;19.90;50.60;;;;;;5028011;28;20132;-61
2020/12/17 12:11:55;;;;;;;4.40;3.03;;;20.00;50.50;;;;;;5045657;28;20115;-63
2020/12/17 12:14:21;;;;;;;4.97;3.10;;;20.00;50.20;;;;;;5045719;28;20040;-63
2020/12/17 12:16:46;;;;;;;3.92;3.15;;;20.20;50.10;;;;;;5045884;28;20242;-62
2020/12/17 12:19:12;;;;;;;2.75;2.40;;;20.30;49.90;;;;;;5045174;28;20137;-63
2020/12/17 12:21:37;;;;;;;4.47;3.03;;;20.30;49.70;;;;;;5027186;28;20110;-58
2020/12/17 12:24:03;;;;;;;3.70;3.03;;;20.40;49.70;;;;;;5045610;28;20483;-63
2020/12/17 12:26:28;;;;;;;3.22;2.90;;;20.40;49.50;;;;;;5045152;28;20033;-63
2020/12/17 12:28:54;;;;;;;3.30;2.70;;;20.40;49.50;;;;;;5044892;28;20032;-63
2020/12/17 12:31:19;;;;;;;3.33;2.72;;;20.40;49.50;;;;;;5045233;28;20499;-62
2020/12/17 12:33:45;;;;;;;3.20;2.88;;;20.40;49.50;;;;;;5045294;28;20048;-60
2020/12/17 12:36:12;;;;;;;3.53;2.75;;;20.30;49.40;;;;;;5045834;28;20407;-63
2020/12/17 12:38:38;;;;;;;4.15;3.00;;;20.30;49.40;;;;;;5044997;28;20778;-62
2020/12/17 12:41:03;;;;;;;3.40;2.65;;;20.30;49.30;;;;;;5044966;28;20041;-63
2020/12/17 12:43:29;;;;;;;3.38;2.50;;;20.30;49.40;;;;;;5044269;28;20044;-62